Pagrindinis puslapis
METAR-TAF:

METAR-TAF

Oro uostai :

Kanzas Sitis, Misūris, Jungtinės Amerikos Valstijos

platuma: 39-17-50N, ilguma: 094-43-50W, Aukštis: 312 m

Dabartinis oras

Ataskaita buvo paskelbta 1 valandą ir 7 minutes, ne 19:53 UTC
Vėjas 7 kt iš Šiaurės Rytų
Temperatūra 23°C
Drėgmė 53%
Slėgis 1024 hPa
Matomumas: 16.1 km
Apsiniaukę ne aukštis 9000 ft

METAR: KMCI 301953Z 05007KT 10SM OVC090 23/13 A3024 RMK AO2 SLP233 T02280128

Laikas: 16:00 (21:00 UTC)

Prognozė

Ataskaita buvo paskelbta 3 valandos ir 40 minutes, ne 17:20 UTC
Prognozė galioja nuo 30 metu 18 UTC su 31 metu 18 UTC
Vėjas 7 kt iš Rytų
Matomumas: 10 km
Su prošvaistėmis ne aukštis 9000 ft
Nuo 31 metu 1200 UTC
Vėjas 9 kt iš Rytų/Pietryčių
Matomumas: 10 km
Su prošvaistėmis ne aukštis 9000 ft

TAF: KMCI 301720Z 3018/3118 09007KT P6SM BKN090 FM311200 12009KT P6SM BKN090

Orai ataskaitas ir orų prognozės (METAR, TAF).

turimą stotys yra geltonos ir raudonos taškus žemėlapyje.

Perkelti pele per norėdami pamatyti stoties vardą.

Tada spustelėkite, norėdami matyti oro stebėjimo ir prognozės.

Norėdami pakeisti žemėlapį: spustelėkite ant žalios mygtukų su juodo kryžiaus žemyn,; žalią mygtuką su brūkšneliu, jei norite nutolinti; arba žalių rodyklių gretimoms žemėlapius.


METAR-TAF: